Ana Sayfa
METAR-TAF:

METAR-TAF

Havaalanları :

Cobar, Avustralya

Enlem: 31-32-18S, Boylam: 145-47-36E, yükseklik: 221 m

Güncel hava durumu gözlemi

Rapor saat 20:00 UTC de 1 saat ve 4 dakika önce yapıldı.
Rüzgar kuzeybatıdan 5 kt
Sıcaklık 6°C
Nem 100%
Basınç 1015 hPa
Görüş mesafesi 10 km veya daha fazla
7100 ft yükseklikte parçalı çok bulutlu

METAR: YCBA 082000Z AUTO 32005KT 9999 // BKN071 06/06 Q1015

Saat: 07:04 (21:04 UTC)


TAF: eksik

4.000'den fazla havaalanı için hava durumu gözlemleri ve tahminleri (METAR ve TAF raporları).

Kullanılabilir istasyonlar harita üzerinde sarı ve kırmızı noktalarla gösterilir.

İstasyonun adını görmek için fareyi noktanın üzerinde gezdirin.

Sonrasında hava gözlem ve tahminlerini görmek için tıklayın.

Haritayı değiştirmek için: yaklaştırmak için siyah artı işaretli yeşil düğmeye ve uzaklaştırmak için de eksi işaretli düğmeye hızla tıklayın; bitişik haritalar için yeşil okları kullanın.


METAR-TAF: